sensor_id;sensor_type;location;lat;lon;timestamp;pressure;altitude;pressure_sealevel;temperature
37452;BMP280;23314;51.114;6.900;2023-09-19T00:00:43;100596.94;;;17.71
37452;BMP280;23314;51.114;6.900;2023-09-19T00:03:10;100600.84;;;17.70
37452;BMP280;23314;51.114;6.900;2023-09-19T00:05:37;100602.22;;;17.65
37452;BMP280;23314;51.114;6.900;2023-09-19T00:08:09;100610.50;;;17.62
37452;BMP280;23314;51.114;6.900;2023-09-19T00:10:34;100605.25;;;17.58
37452;BMP280;23314;51.114;6.900;2023-09-19T00:13:01;100613.50;;;17.54
37452;BMP280;23314;51.114;6.900;2023-09-19T00:15:35;100612.50;;;17.52
37452;BMP280;23314;51.114;6.900;2023-09-19T00:18:03;100613.38;;;17.49
37452;BMP280;23314;51.114;6.900;2023-09-19T00:20:30;100617.72;;;17.46
37452;BMP280;23314;51.114;6.900;2023-09-19T00:22:56;100617.16;;;17.42
37452;BMP280;23314;51.114;6.900;2023-09-19T00:25:30;100619.13;;;17.42
37452;BMP280;23314;51.114;6.900;2023-09-19T00:27:57;100620.44;;;17.46
37452;BMP280;23314;51.114;6.900;2023-09-19T00:30:23;100618.19;;;17.45
37452;BMP280;23314;51.114;6.900;2023-09-19T00:32:50;100614.91;;;17.41
37452;BMP280;23314;51.114;6.900;2023-09-19T00:35:22;100623.78;;;17.41
37452;BMP280;23314;51.114;6.900;2023-09-19T00:37:51;100625.41;;;17.38
37452;BMP280;23314;51.114;6.900;2023-09-19T00:40:16;100621.22;;;17.37
37452;BMP280;23314;51.114;6.900;2023-09-19T00:42:43;100635.47;;;17.38
37452;BMP280;23314;51.114;6.900;2023-09-19T00:45:10;100631.84;;;17.41
37452;BMP280;23314;51.114;6.900;2023-09-19T00:47:41;100639.75;;;17.45
37452;BMP280;23314;51.114;6.900;2023-09-19T00:50:08;100635.09;;;17.45
37452;BMP280;23314;51.114;6.900;2023-09-19T00:52:34;100634.38;;;17.45
37452;BMP280;23314;51.114;6.900;2023-09-19T00:55:05;100638.72;;;17.42
37452;BMP280;23314;51.114;6.900;2023-09-19T00:57:31;100638.00;;;17.42
37452;BMP280;23314;51.114;6.900;2023-09-19T00:59:58;100636.03;;;17.42
37452;BMP280;23314;51.114;6.900;2023-09-19T01:02:24;100639.50;;;17.43
37452;BMP280;23314;51.114;6.900;2023-09-19T01:04:52;100643.69;;;17.44
37452;BMP280;23314;51.114;6.900;2023-09-19T01:07:18;100651.78;;;17.44
37452;BMP280;23314;51.114;6.900;2023-09-19T01:09:44;100647.41;;;17.46
37452;BMP280;23314;51.114;6.900;2023-09-19T01:12:10;100646.19;;;17.47
37452;BMP280;23314;51.114;6.900;2023-09-19T01:14:56;100652.47;;;17.44
37452;BMP280;23314;51.114;6.900;2023-09-19T01:17:32;100650.84;;;17.47
37452;BMP280;23314;51.114;6.900;2023-09-19T01:20:20;100646.66;;;17.46
37452;BMP280;23314;51.114;6.900;2023-09-19T01:31:44;100664.59;;;17.58
37452;BMP280;23314;51.114;6.900;2023-09-19T01:34:10;100668.50;;;17.57
37452;BMP280;23314;51.114;6.900;2023-09-19T01:36:36;100661.16;;;17.58
37452;BMP280;23314;51.114;6.900;2023-09-19T01:39:13;100661.31;;;17.54
37452;BMP280;23314;51.114;6.900;2023-09-19T01:42:01;100675.09;;;17.56
37452;BMP280;23314;51.114;6.900;2023-09-19T01:47:49;100677.16;;;17.61
37452;BMP280;23314;51.114;6.900;2023-09-19T01:50:32;100676.56;;;17.66
37452;BMP280;23314;51.114;6.900;2023-09-19T01:53:07;100690.94;;;17.72
37452;BMP280;23314;51.114;6.900;2023-09-19T01:55:41;100694.66;;;17.75
37452;BMP280;23314;51.114;6.900;2023-09-19T01:58:39;100689.56;;;17.77
37452;BMP280;23314;51.114;6.900;2023-09-19T02:01:11;100687.13;;;17.79
37452;BMP280;23314;51.114;6.900;2023-09-19T02:03:38;100685.06;;;17.83
37452;BMP280;23314;51.114;6.900;2023-09-19T02:06:04;100689.69;;;17.83
37452;BMP280;23314;51.114;6.900;2023-09-19T02:08:30;100689.84;;;17.79
37452;BMP280;23314;51.114;6.900;2023-09-19T02:10:58;100693.28;;;17.80
37452;BMP280;23314;51.114;6.900;2023-09-19T02:13:25;100691.94;;;17.75
37452;BMP280;23314;51.114;6.900;2023-09-19T02:15:53;100702.00;;;17.75
37452;BMP280;23314;51.114;6.900;2023-09-19T02:18:18;100696.34;;;17.72
37452;BMP280;23314;51.114;6.900;2023-09-19T02:20:43;100701.25;;;17.74
37452;BMP280;23314;51.114;6.900;2023-09-19T02:23:10;100704.13;;;17.70
37452;BMP280;23314;51.114;6.900;2023-09-19T02:25:35;100702.03;;;17.65
37452;BMP280;23314;51.114;6.900;2023-09-19T02:28:01;100711.50;;;17.61
37452;BMP280;23314;51.114;6.900;2023-09-19T02:30:28;100700.13;;;17.57
37452;BMP280;23314;51.114;6.900;2023-09-19T02:32:54;100712.41;;;17.58
37452;BMP280;23314;51.114;6.900;2023-09-19T02:35:19;100717.50;;;17.55
37452;BMP280;23314;51.114;6.900;2023-09-19T02:37:45;100719.59;;;17.61
37452;BMP280;23314;51.114;6.900;2023-09-19T02:40:11;100716.13;;;17.60
37452;BMP280;23314;51.114;6.900;2023-09-19T02:42:47;100719.59;;;17.61
37452;BMP280;23314;51.114;6.900;2023-09-19T02:45:18;100713.00;;;17.62
37452;BMP280;23314;51.114;6.900;2023-09-19T02:47:44;100717.31;;;17.59
37452;BMP280;23314;51.114;6.900;2023-09-19T02:50:10;100712.69;;;17.60
37452;BMP280;23314;51.114;6.900;2023-09-19T02:52:42;100713.44;;;17.60
37452;BMP280;23314;51.114;6.900;2023-09-19T02:55:14;100713.91;;;17.59
37452;BMP280;23314;51.114;6.900;2023-09-19T02:57:46;100721.56;;;17.51
37452;BMP280;23314;51.114;6.900;2023-09-19T03:00:13;100730.25;;;17.46
37452;BMP280;23314;51.114;6.900;2023-09-19T03:02:38;100719.34;;;17.40
37452;BMP280;23314;51.114;6.900;2023-09-19T03:05:06;100720.53;;;17.39
37452;BMP280;23314;51.114;6.900;2023-09-19T03:07:32;100723.09;;;17.33
37452;BMP280;23314;51.114;6.900;2023-09-19T03:09:57;100735.69;;;17.27
37452;BMP280;23314;51.114;6.900;2023-09-19T03:12:23;100738.09;;;17.25
37452;BMP280;23314;51.114;6.900;2023-09-19T03:14:48;100737.78;;;17.23
37452;BMP280;23314;51.114;6.900;2023-09-19T03:17:13;100748.44;;;17.17
37452;BMP280;23314;51.114;6.900;2023-09-19T03:19:40;100745.44;;;17.15
37452;BMP280;23314;51.114;6.900;2023-09-19T03:22:05;100749.31;;;17.14
37452;BMP280;23314;51.114;6.900;2023-09-19T03:24:30;100747.38;;;17.15
37452;BMP280;23314;51.114;6.900;2023-09-19T03:26:57;100747.53;;;17.11
37452;BMP280;23314;51.114;6.900;2023-09-19T03:29:22;100754.53;;;17.09
37452;BMP280;23314;51.114;6.900;2023-09-19T03:31:48;100746.16;;;17.07
37452;BMP280;23314;51.114;6.900;2023-09-19T03:34:13;100744.09;;;17.01
37452;BMP280;23314;51.114;6.900;2023-09-19T03:36:39;100736.75;;;17.02
37452;BMP280;23314;51.114;6.900;2023-09-19T03:39:05;100742.28;;;16.98
37452;BMP280;23314;51.114;6.900;2023-09-19T03:41:31;100731.03;;;17.00
37452;BMP280;23314;51.114;6.900;2023-09-19T03:43:58;100739.72;;;16.95
37452;BMP280;23314;51.114;6.900;2023-09-19T03:46:23;100736.44;;;16.91
37452;BMP280;23314;51.114;6.900;2023-09-19T03:48:50;100742.25;;;16.89
37452;BMP280;23314;51.114;6.900;2023-09-19T03:51:15;100736.88;;;16.89
37452;BMP280;23314;51.114;6.900;2023-09-19T03:53:41;100734.63;;;16.87
37452;BMP280;23314;51.114;6.900;2023-09-19T03:56:06;100738.22;;;16.84
37452;BMP280;23314;51.114;6.900;2023-09-19T03:58:33;100730.47;;;16.86
37452;BMP280;23314;51.114;6.900;2023-09-19T04:01:00;100741.94;;;16.87
37452;BMP280;23314;51.114;6.900;2023-09-19T04:03:26;100727.47;;;16.84
37452;BMP280;23314;51.114;6.900;2023-09-19T04:06:00;100734.03;;;16.83
37452;BMP280;23314;51.114;6.900;2023-09-19T04:08:25;100735.22;;;16.82
37452;BMP280;23314;51.114;6.900;2023-09-19T04:10:51;100736.72;;;16.83
37452;BMP280;23314;51.114;6.900;2023-09-19T04:13:17;100738.97;;;16.85
37452;BMP280;23314;51.114;6.900;2023-09-19T04:15:42;100741.94;;;16.87
37452;BMP280;23314;51.114;6.900;2023-09-19T04:18:08;100736.44;;;16.91
37452;BMP280;23314;51.114;6.900;2023-09-19T04:20:33;100737.19;;;16.91
37452;BMP280;23314;51.114;6.900;2023-09-19T04:22:58;100745.56;;;16.93
37452;BMP280;23314;51.114;6.900;2023-09-19T04:25:25;100733.28;;;16.92
37452;BMP280;23314;51.114;6.900;2023-09-19T04:27:51;100742.41;;;16.95
37452;BMP280;23314;51.114;6.900;2023-09-19T04:30:17;100747.38;;;16.96
37452;BMP280;23314;51.114;6.900;2023-09-19T04:32:42;100750.50;;;16.95
37452;BMP280;23314;51.114;6.900;2023-09-19T04:35:09;100755.47;;;16.96
37452;BMP280;23314;51.114;6.900;2023-09-19T04:37:39;100750.69;;;17.00
37452;BMP280;23314;51.114;6.900;2023-09-19T04:40:08;100747.22;;;17.00
37452;BMP280;23314;51.114;6.900;2023-09-19T04:42:38;100744.09;;;17.01
37452;BMP280;23314;51.114;6.900;2023-09-19T04:45:04;100751.69;;;17.03
37452;BMP280;23314;51.114;6.900;2023-09-19T04:47:30;100758.16;;;17.06
37452;BMP280;23314;51.114;6.900;2023-09-19T04:49:56;100764.28;;;17.06
37452;BMP280;23314;51.114;6.900;2023-09-19T04:52:24;100766.25;;;17.06
37452;BMP280;23314;51.114;6.900;2023-09-19T04:54:49;100759.66;;;17.07
37452;BMP280;23314;51.114;6.900;2023-09-19T04:57:14;100759.03;;;17.02
37452;BMP280;23314;51.114;6.900;2023-09-19T04:59:41;100755.16;;;17.03
37452;BMP280;23314;51.114;6.900;2023-09-19T05:02:06;100764.28;;;17.06
37452;BMP280;23314;51.114;6.900;2023-09-19T05:04:33;100767.72;;;17.07
37452;BMP280;23314;51.114;6.900;2023-09-19T05:06:58;100756.94;;;17.07
37452;BMP280;23314;51.114;6.900;2023-09-19T05:09:25;100765.03;;;17.07
37452;BMP280;23314;51.114;6.900;2023-09-19T05:11:50;100766.41;;;17.02
37452;BMP280;23314;51.114;6.900;2023-09-19T05:14:16;100769.97;;;16.99
37452;BMP280;23314;51.114;6.900;2023-09-19T05:16:41;100774.63;;;16.98
37452;BMP280;23314;51.114;6.900;2023-09-19T05:19:07;100787.03;;;16.96
37452;BMP280;23314;51.114;6.900;2023-09-19T05:21:36;100786.47;;;16.92
37452;BMP280;23314;51.114;6.900;2023-09-19T05:24:05;100789.44;;;16.94
37452;BMP280;23314;51.114;6.900;2023-09-19T05:26:32;100797.22;;;17.01
37452;BMP280;23314;51.114;6.900;2023-09-19T05:28:57;100797.97;;;17.11
37452;BMP280;23314;51.114;6.900;2023-09-19T05:31:22;100805.06;;;17.17
37452;BMP280;23314;51.114;6.900;2023-09-19T05:33:49;100803.22;;;17.24
37452;BMP280;23314;51.114;6.900;2023-09-19T05:36:15;100814.78;;;17.33
37452;BMP280;23314;51.114;6.900;2023-09-19T05:38:42;100815.97;;;17.42
37452;BMP280;23314;51.114;6.900;2023-09-19T05:41:08;100813.25;;;17.51
37452;BMP280;23314;51.114;6.900;2023-09-19T05:43:35;100815.94;;;17.60
37452;BMP280;23314;51.114;6.900;2023-09-19T05:46:03;100815.03;;;17.72
37452;BMP280;23314;51.114;6.900;2023-09-19T05:48:28;100819.47;;;17.85
37452;BMP280;23314;51.114;6.900;2023-09-19T05:50:53;100826.81;;;17.94
37452;BMP280;23314;51.114;6.900;2023-09-19T05:53:19;100821.09;;;18.01
37452;BMP280;23314;51.114;6.900;2023-09-19T05:55:44;100826.63;;;18.06
37452;BMP280;23314;51.114;6.900;2023-09-19T05:58:10;100824.97;;;18.09
37452;BMP280;23314;51.114;6.900;2023-09-19T06:00:39;100839.09;;;18.13
37452;BMP280;23314;51.114;6.900;2023-09-19T06:03:07;100842.03;;;18.15
37452;BMP280;23314;51.114;6.900;2023-09-19T06:05:33;100851.22;;;18.18
37452;BMP280;23314;51.114;6.900;2023-09-19T06:07:59;100850.72;;;18.19
37452;BMP280;23314;51.114;6.900;2023-09-19T06:10:25;100859.59;;;18.20
37452;BMP280;23314;51.114;6.900;2023-09-19T06:12:52;100865.16;;;18.16
37452;BMP280;23314;51.114;6.900;2023-09-19T06:15:18;100864.00;;;18.08
37452;BMP280;23314;51.114;6.900;2023-09-19T06:17:54;100870.47;;;18.01
37452;BMP280;23314;51.114;6.900;2023-09-19T06:20:20;100872.56;;;17.97
37452;BMP280;23314;51.114;6.900;2023-09-19T06:22:48;100876.59;;;17.93
37452;BMP280;23314;51.114;6.900;2023-09-19T06:25:14;100865.81;;;17.93
37452;BMP280;23314;51.114;6.900;2023-09-19T06:27:51;100865.81;;;17.93
37452;BMP280;23314;51.114;6.900;2023-09-19T06:30:19;100863.56;;;17.91
37452;BMP280;23314;51.114;6.900;2023-09-19T06:32:44;100865.50;;;17.90
37452;BMP280;23314;51.114;6.900;2023-09-19T06:35:11;100875.88;;;17.92
37452;BMP280;23314;51.114;6.900;2023-09-19T06:37:37;100863.88;;;17.93
37452;BMP280;23314;51.114;6.900;2023-09-19T06:40:12;100869.09;;;17.97
37452;BMP280;23314;51.114;6.900;2023-09-19T06:42:40;100863.28;;;17.98
37452;BMP280;23314;51.114;6.900;2023-09-19T06:45:07;100854.69;;;18.00
37452;BMP280;23314;51.114;6.900;2023-09-19T06:47:32;100855.72;;;18.02
37452;BMP280;23314;51.114;6.900;2023-09-19T06:49:57;100857.97;;;18.04
37452;BMP280;23314;51.114;6.900;2023-09-19T06:52:23;100860.22;;;18.05
37452;BMP280;23314;51.114;6.900;2023-09-19T06:54:48;100856.31;;;18.06
37452;BMP280;23314;51.114;6.900;2023-09-19T06:57:16;100862.31;;;18.11
37452;BMP280;23314;51.114;6.900;2023-09-19T06:59:41;100867.28;;;18.12
37452;BMP280;23314;51.114;6.900;2023-09-19T07:02:06;100859.31;;;18.18
37452;BMP280;23314;51.114;6.900;2023-09-19T07:04:32;100868.28;;;18.24
37452;BMP280;23314;51.114;6.900;2023-09-19T07:06:57;100861.69;;;18.25
37452;BMP280;23314;51.114;6.900;2023-09-19T07:09:23;100869.91;;;18.31
37452;BMP280;23314;51.114;6.900;2023-09-19T07:11:49;100868.72;;;18.32
37452;BMP280;23314;51.114;6.900;2023-09-19T07:14:16;100876.63;;;18.35
37452;BMP280;23314;51.114;6.900;2023-09-19T07:16:41;100871.66;;;18.43
37452;BMP280;23314;51.114;6.900;2023-09-19T07:19:09;100873.44;;;18.46
37452;BMP280;23314;51.114;6.900;2023-09-19T07:21:35;100883.91;;;18.53
37452;BMP280;23314;51.114;6.900;2023-09-19T07:24:00;100880.72;;;18.64
37452;BMP280;23314;51.114;6.900;2023-09-19T07:26:26;100881.88;;;18.72
37452;BMP280;23314;51.114;6.900;2023-09-19T07:28:53;100881.88;;;18.72
37452;BMP280;23314;51.114;6.900;2023-09-19T07:31:18;100891.63;;;18.79
37452;BMP280;23314;51.114;6.900;2023-09-19T07:33:44;100887.34;;;18.87
37452;BMP280;23314;51.114;6.900;2023-09-19T07:36:10;100892.44;;;18.95
37452;BMP280;23314;51.114;6.900;2023-09-19T07:38:36;100895.81;;;19.04
37452;BMP280;23314;51.114;6.900;2023-09-19T07:41:02;100901.63;;;19.12
37452;BMP280;23314;51.114;6.900;2023-09-19T07:43:32;100898.56;;;19.19
37452;BMP280;23314;51.114;6.900;2023-09-19T07:46:03;100901.56;;;19.21
37452;BMP280;23314;51.114;6.900;2023-09-19T07:48:28;100903.00;;;19.32
37452;BMP280;23314;51.114;6.900;2023-09-19T07:50:54;100908.34;;;19.41
37452;BMP280;23314;51.114;6.900;2023-09-19T07:53:20;100907.41;;;19.44
37452;BMP280;23314;51.114;6.900;2023-09-19T07:55:45;100899.38;;;19.50
37452;BMP280;23314;51.114;6.900;2023-09-19T07:58:13;100900.53;;;19.58
37452;BMP280;23314;51.114;6.900;2023-09-19T08:00:38;100910.06;;;19.68
37452;BMP280;23314;51.114;6.900;2023-09-19T08:03:04;100889.63;;;19.67
37452;BMP280;23314;51.114;6.900;2023-09-19T08:05:29;100906.81;;;19.64
37452;BMP280;23314;51.114;6.900;2023-09-19T08:07:54;100901.56;;;19.75
37452;BMP280;23314;51.114;6.900;2023-09-19T08:10:21;100903.91;;;19.83
37452;BMP280;23314;51.114;6.900;2023-09-19T08:12:47;100906.91;;;19.85
37452;BMP280;23314;51.114;6.900;2023-09-19T08:15:18;100907.19;;;19.87
37452;BMP280;23314;51.114;6.900;2023-09-19T08:17:47;100908.50;;;19.91
37452;BMP280;23314;51.114;6.900;2023-09-19T08:20:13;100913.53;;;19.99
37452;BMP280;23314;51.114;6.900;2023-09-19T08:22:52;100912.13;;;20.03
37452;BMP280;23314;51.114;6.900;2023-09-19T08:25:20;100905.28;;;20.08
37452;BMP280;23314;51.114;6.900;2023-09-19T08:27:47;100908.25;;;20.10
37452;BMP280;23314;51.114;6.900;2023-09-19T08:30:18;100905.66;;;20.16
37452;BMP280;23314;51.114;6.900;2023-09-19T08:32:43;100913.41;;;20.23
37452;BMP280;23314;51.114;6.900;2023-09-19T08:35:10;100923.94;;;20.36
37452;BMP280;23314;51.114;6.900;2023-09-19T08:37:36;100914.66;;;20.57
37452;BMP280;23314;51.114;6.900;2023-09-19T08:40:01;100918.94;;;20.85
37452;BMP280;23314;51.114;6.900;2023-09-19T08:42:27;100925.00;;;20.94
37452;BMP280;23314;51.114;6.900;2023-09-19T08:44:52;100920.00;;;20.93
37452;BMP280;23314;51.114;6.900;2023-09-19T08:47:33;100926.53;;;21.01
37452;BMP280;23314;51.114;6.900;2023-09-19T08:52:28;100924.03;;;21.18
37452;BMP280;23314;51.114;6.900;2023-09-19T08:54:59;100927.78;;;21.26
37452;BMP280;23314;51.114;6.900;2023-09-19T08:57:33;100920.91;;;21.25
37452;BMP280;23314;51.114;6.900;2023-09-19T09:00:00;100916.47;;;21.28
37452;BMP280;23314;51.114;6.900;2023-09-19T09:02:27;100918.00;;;21.34
37452;BMP280;23314;51.114;6.900;2023-09-19T09:04:53;100926.72;;;21.39
37452;BMP280;23314;51.114;6.900;2023-09-19T09:07:20;100923.38;;;21.49
37452;BMP280;23314;51.114;6.900;2023-09-19T09:09:46;100930.63;;;21.64
37452;BMP280;23314;51.114;6.900;2023-09-19T09:12:13;100927.53;;;21.77
37452;BMP280;23314;51.114;6.900;2023-09-19T09:14:40;100924.09;;;21.76
37452;BMP280;23314;51.114;6.900;2023-09-19T09:17:06;100921.91;;;21.80
37452;BMP280;23314;51.114;6.900;2023-09-19T09:19:32;100926.25;;;21.98
37452;BMP280;23314;51.114;6.900;2023-09-19T09:22:08;100917.25;;;22.18
37452;BMP280;23314;51.114;6.900;2023-09-19T09:24:34;100917.38;;;22.35
37452;BMP280;23314;51.114;6.900;2023-09-19T09:27:03;100919.44;;;22.52
37452;BMP280;23314;51.114;6.900;2023-09-19T09:29:46;100917.25;;;22.62
37452;BMP280;23314;51.114;6.900;2023-09-19T09:32:39;100906.91;;;22.71
37452;BMP280;23314;51.114;6.900;2023-09-19T09:35:07;100906.03;;;23.03
37452;BMP280;23314;51.114;6.900;2023-09-19T09:37:43;100903.34;;;23.14
37452;BMP280;23314;51.114;6.900;2023-09-19T09:40:08;100900.63;;;23.25
37452;BMP280;23314;51.114;6.900;2023-09-19T09:42:39;100906.09;;;23.37
37452;BMP280;23314;51.114;6.900;2023-09-19T09:45:22;100900.16;;;23.44
37452;BMP280;23314;51.114;6.900;2023-09-19T09:48:03;100905.84;;;23.40
37452;BMP280;23314;51.114;6.900;2023-09-19T09:50:31;100906.09;;;23.54
37452;BMP280;23314;51.114;6.900;2023-09-19T09:53:29;100905.34;;;23.65
37452;BMP280;23314;51.114;6.900;2023-09-19T09:58:33;100909.06;;;23.78
37452;BMP280;23314;51.114;6.900;2023-09-19T10:01:00;100904.63;;;23.75
37452;BMP280;23314;51.114;6.900;2023-09-19T10:03:38;100897.69;;;23.63
37452;BMP280;23314;51.114;6.900;2023-09-19T10:06:14;100901.16;;;23.58
37452;BMP280;23314;51.114;6.900;2023-09-19T10:09:04;100898.44;;;23.52
37452;BMP280;23314;51.114;6.900;2023-09-19T10:11:44;100911.03;;;23.38
37452;BMP280;23314;51.114;6.900;2023-09-19T10:14:15;100904.09;;;23.43
37452;BMP280;23314;51.114;6.900;2023-09-19T10:16:45;100895.69;;;23.47
37452;BMP280;23314;51.114;6.900;2023-09-19T10:19:21;100890.50;;;23.43
37452;BMP280;23314;51.114;6.900;2023-09-19T10:21:50;100895.19;;;23.37
37452;BMP280;23314;51.114;6.900;2023-09-19T10:24:17;100888.25;;;23.24
37452;BMP280;23314;51.114;6.900;2023-09-19T10:26:45;100887.75;;;23.15
37452;BMP280;23314;51.114;6.900;2023-09-19T10:29:13;100891.19;;;23.04
37452;BMP280;23314;51.114;6.900;2023-09-19T10:31:40;100881.50;;;22.91
37452;BMP280;23314;51.114;6.900;2023-09-19T10:34:08;100883.47;;;22.80
37452;BMP280;23314;51.114;6.900;2023-09-19T10:36:36;100881.47;;;22.80
37452;BMP280;23314;51.114;6.900;2023-09-19T10:39:02;100883.69;;;22.82
37452;BMP280;23314;51.114;6.900;2023-09-19T10:41:32;100867.88;;;22.80
37452;BMP280;23314;51.114;6.900;2023-09-19T10:44:03;100861.19;;;22.81
37452;BMP280;23314;51.114;6.900;2023-09-19T10:46:31;100878.53;;;22.95
37452;BMP280;23314;51.114;6.900;2023-09-19T10:48:59;100870.16;;;22.99
37452;BMP280;23314;51.114;6.900;2023-09-19T10:51:29;100870.69;;;23.03
37452;BMP280;23314;51.114;6.900;2023-09-19T10:54:02;100869.91;;;23.08
37452;BMP280;23314;51.114;6.900;2023-09-19T10:56:37;100873.16;;;23.06
37452;BMP280;23314;51.114;6.900;2023-09-19T10:59:10;100876.81;;;23.03
37452;BMP280;23314;51.114;6.900;2023-09-19T11:01:53;100878.31;;;23.04
37452;BMP280;23314;51.114;6.900;2023-09-19T11:04:31;100874.63;;;23.02
37452;BMP280;23314;51.114;6.900;2023-09-19T11:07:14;100877.59;;;23.04
37452;BMP280;23314;51.114;6.900;2023-09-19T11:15:06;100876.13;;;23.54
37452;BMP280;23314;51.114;6.900;2023-09-19T11:17:35;100878.59;;;23.69
37452;BMP280;23314;51.114;6.900;2023-09-19T11:30:31;100887.13;;;24.29
37452;BMP280;23314;51.114;6.900;2023-09-19T11:33:19;100890.16;;;24.14
37452;BMP280;23314;51.114;6.900;2023-09-19T11:49:16;100887.72;;;24.05
37452;BMP280;23314;51.114;6.900;2023-09-19T11:51:45;100887.75;;;23.94
37452;BMP280;23314;51.114;6.900;2023-09-19T11:54:13;100887.50;;;23.86
37452;BMP280;23314;51.114;6.900;2023-09-19T11:56:44;100869.19;;;23.75
37452;BMP280;23314;51.114;6.900;2023-09-19T11:59:11;100883.56;;;23.70
37452;BMP280;23314;51.114;6.900;2023-09-19T12:01:38;100882.56;;;23.79
37452;BMP280;23314;51.114;6.900;2023-09-19T12:04:11;100870.44;;;23.74
37452;BMP280;23314;51.114;6.900;2023-09-19T12:06:37;100885.78;;;23.77
37452;BMP280;23314;51.114;6.900;2023-09-19T12:09:12;100882.56;;;23.79
37452;BMP280;23314;51.114;6.900;2023-09-19T12:11:42;100865.97;;;23.71
37452;BMP280;23314;51.114;6.900;2023-09-19T12:14:09;100867.44;;;23.72
37452;BMP280;23314;51.114;6.900;2023-09-19T12:16:35;100868.69;;;23.66
37452;BMP280;23314;51.114;6.900;2023-09-19T12:19:20;100860.28;;;23.58
37452;BMP280;23314;51.114;6.900;2023-09-19T12:21:58;100850.66;;;23.51
37452;BMP280;23314;51.114;6.900;2023-09-19T12:24:26;100856.09;;;23.51
37452;BMP280;23314;51.114;6.900;2023-09-19T12:26:52;100844.22;;;23.49
37452;BMP280;23314;51.114;6.900;2023-09-19T12:29:19;100853.88;;;23.44
37452;BMP280;23314;51.114;6.900;2023-09-19T12:31:53;100849.66;;;23.43
37452;BMP280;23314;51.114;6.900;2023-09-19T12:34:25;100857.06;;;23.42
37452;BMP280;23314;51.114;6.900;2023-09-19T12:37:14;100861.28;;;23.38
37452;BMP280;23314;51.114;6.900;2023-09-19T12:39:53;100844.22;;;23.37
37452;BMP280;23314;51.114;6.900;2023-09-19T12:42:27;100846.69;;;23.41
37452;BMP280;23314;51.114;6.900;2023-09-19T12:45:00;100841.50;;;23.49
37452;BMP280;23314;51.114;6.900;2023-09-19T12:47:27;100833.81;;;23.53
37452;BMP280;23314;51.114;6.900;2023-09-19T12:52:51;100832.31;;;23.57
37452;BMP280;23314;51.114;6.900;2023-09-19T12:55:24;100815.72;;;23.61
37452;BMP280;23314;51.114;6.900;2023-09-19T12:57:56;100811.78;;;23.68
37452;BMP280;23314;51.114;6.900;2023-09-19T13:00:32;100823.13;;;23.60
37452;BMP280;23314;51.114;6.900;2023-09-19T13:08:27;100801.84;;;23.65
37452;BMP280;23314;51.114;6.900;2023-09-19T13:13:37;100805.56;;;23.78
37452;BMP280;23314;51.114;6.900;2023-09-19T13:16:03;100808.25;;;23.84
37452;BMP280;23314;51.114;6.900;2023-09-19T13:18:57;100810.94;;;23.95
37452;BMP280;23314;51.114;6.900;2023-09-19T13:21:33;100809.44;;;24.00
37452;BMP280;23314;51.114;6.900;2023-09-19T13:24:23;100811.13;;;24.14
37452;BMP280;23314;51.114;6.900;2023-09-19T13:26:53;100810.56;;;24.33
37452;BMP280;23314;51.114;6.900;2023-09-19T13:29:18;100809.47;;;24.47
37452;BMP280;23314;51.114;6.900;2023-09-19T13:31:51;100819.09;;;24.60
37452;BMP280;23314;51.114;6.900;2023-09-19T13:34:19;100813.25;;;24.75
37452;BMP280;23314;51.114;6.900;2023-09-19T13:36:45;100812.66;;;24.93
37452;BMP280;23314;51.114;6.900;2023-09-19T13:39:17;100812.63;;;24.99
37452;BMP280;23314;51.114;6.900;2023-09-19T13:41:47;100806.88;;;25.02
37452;BMP280;23314;51.114;6.900;2023-09-19T13:44:12;100806.84;;;25.08
37452;BMP280;23314;51.114;6.900;2023-09-19T13:46:39;100805.06;;;25.11
37452;BMP280;23314;51.114;6.900;2023-09-19T13:49:06;100808.25;;;25.15
37452;BMP280;23314;51.114;6.900;2023-09-19T13:51:32;100815.94;;;25.16
37452;BMP280;23314;51.114;6.900;2023-09-19T13:53:58;100804.78;;;25.20
37452;BMP280;23314;51.114;6.900;2023-09-19T13:56:25;100801.56;;;25.16
37452;BMP280;23314;51.114;6.900;2023-09-19T13:58:56;100824.25;;;25.05
37452;BMP280;23314;51.114;6.900;2023-09-19T14:01:21;100838.72;;;24.94
37452;BMP280;23314;51.114;6.900;2023-09-19T14:03:47;100817.97;;;24.80
37452;BMP280;23314;51.114;6.900;2023-09-19T14:06:14;100820.50;;;24.72
37452;BMP280;23314;51.114;6.900;2023-09-19T14:08:40;100819.03;;;24.71
37452;BMP280;23314;51.114;6.900;2023-09-19T14:11:09;100825.25;;;24.66
37452;BMP280;23314;51.114;6.900;2023-09-19T14:13:34;100822.81;;;24.57
37452;BMP280;23314;51.114;6.900;2023-09-19T14:16:04;100824.84;;;24.50
37452;BMP280;23314;51.114;6.900;2023-09-19T14:18:30;100819.69;;;24.41
37452;BMP280;23314;51.114;6.900;2023-09-19T14:20:56;100822.44;;;24.36
37452;BMP280;23314;51.114;6.900;2023-09-19T14:23:25;100818.69;;;24.39
37452;BMP280;23314;51.114;6.900;2023-09-19T14:25:51;100816.66;;;24.50
37452;BMP280;23314;51.114;6.900;2023-09-19T14:30:44;100830.44;;;24.69
37452;BMP280;23314;51.114;6.900;2023-09-19T14:33:09;100825.81;;;24.95
37452;BMP280;23314;51.114;6.900;2023-09-19T14:35:37;100822.59;;;25.21
37452;BMP280;23314;51.114;6.900;2023-09-19T14:38:02;100807.03;;;25.16
37452;BMP280;23314;51.114;6.900;2023-09-19T14:40:27;100811.06;;;25.03
37452;BMP280;23314;51.114;6.900;2023-09-19T14:42:53;100813.38;;;24.94
37452;BMP280;23314;51.114;6.900;2023-09-19T14:45:18;100823.75;;;25.01
37452;BMP280;23314;51.114;6.900;2023-09-19T14:47:46;100821.78;;;25.01
37452;BMP280;23314;51.114;6.900;2023-09-19T14:50:11;100810.09;;;25.07
37452;BMP280;23314;51.114;6.900;2023-09-19T14:52:38;100821.94;;;25.09
37452;BMP280;23314;51.114;6.900;2023-09-19T14:55:06;100815.16;;;24.91
37452;BMP280;23314;51.114;6.900;2023-09-19T14:57:31;100815.28;;;24.74
37452;BMP280;23314;51.114;6.900;2023-09-19T14:59:58;100814.56;;;24.68
37452;BMP280;23314;51.114;6.900;2023-09-19T15:02:23;100821.59;;;24.52
37452;BMP280;23314;51.114;6.900;2023-09-19T15:04:51;100815.00;;;24.36